createdAt,value
2022-09-23T00:00:45.230Z,80.92
2022-09-23T00:03:12.247Z,80.74
2022-09-23T00:05:38.682Z,80.83
2022-09-23T00:08:06.288Z,80.59
2022-09-23T00:10:32.928Z,80.24
2022-09-23T00:12:59.753Z,80.19
2022-09-23T00:15:26.837Z,80.07
2022-09-23T00:17:53.171Z,80.09
2022-09-23T00:20:19.675Z,80.46
2022-09-23T00:22:46.093Z,80.74
2022-09-23T00:25:12.749Z,80.45
2022-09-23T00:27:40.734Z,80.60
2022-09-23T00:30:08.930Z,81.00
2022-09-23T00:32:36.174Z,81.07
2022-09-23T00:35:02.716Z,81.21
2022-09-23T00:37:30.655Z,81.08
2022-09-23T00:39:57.122Z,81.28
2022-09-23T00:42:24.282Z,81.26
2022-09-23T00:44:55.958Z,81.18
2022-09-23T00:47:25.159Z,81.23
2022-09-23T00:50:14.181Z,81.11
2022-09-23T00:52:40.829Z,81.69
2022-09-23T00:55:12.698Z,81.36
2022-09-23T00:57:42.194Z,81.63
2022-09-23T01:00:09.322Z,81.67
2022-09-23T01:02:36.057Z,81.43
2022-09-23T01:05:04.637Z,81.39
2022-09-23T01:07:31.048Z,81.46
2022-09-23T01:09:59.808Z,81.55
2022-09-23T01:12:56.307Z,81.42
2022-09-23T01:15:33.343Z,81.54
2022-09-23T01:18:15.419Z,81.58
2022-09-23T01:21:13.616Z,81.50
2022-09-23T01:24:01.164Z,81.35
2022-09-23T01:26:48.816Z,81.36
2022-09-23T01:29:40.193Z,81.11
2022-09-23T01:32:14.222Z,81.07
2022-09-23T01:35:04.691Z,81.06
2022-09-23T01:37:47.867Z,80.98
2022-09-23T01:40:26.651Z,80.78
2022-09-23T01:43:02.278Z,80.59
2022-09-23T01:45:31.377Z,80.57
2022-09-23T01:48:04.296Z,80.93
2022-09-23T01:50:36.762Z,81.02
2022-09-23T01:53:10.768Z,81.20
2022-09-23T01:55:41.869Z,81.40
2022-09-23T01:58:21.210Z,81.28
2022-09-23T02:00:55.261Z,81.37
2022-09-23T02:03:27.176Z,81.57
2022-09-23T02:06:02.040Z,81.80
2022-09-23T02:08:28.270Z,81.94
2022-09-23T02:11:02.485Z,81.47
2022-09-23T02:13:35.935Z,81.34
2022-09-23T02:16:08.878Z,81.52
2022-09-23T02:18:43.956Z,81.75
2022-09-23T02:21:10.321Z,81.81
2022-09-23T02:23:43.353Z,81.78
2022-09-23T02:26:27.836Z,81.46
2022-09-23T02:29:16.221Z,81.34
2022-09-23T02:32:01.155Z,81.43
2022-09-23T02:34:36.502Z,81.46
2022-09-23T02:37:19.610Z,81.45
2022-09-23T02:40:07.788Z,81.35
2022-09-23T02:43:14.002Z,81.87
2022-09-23T02:45:40.615Z,82.11
2022-09-23T02:48:16.219Z,82.08
2022-09-23T02:50:42.592Z,81.66
2022-09-23T02:53:09.020Z,81.36
2022-09-23T02:55:35.376Z,81.25
2022-09-23T02:58:03.532Z,81.22
2022-09-23T03:00:42.740Z,81.00
2022-09-23T03:03:18.190Z,81.17
2022-09-23T03:05:52.882Z,81.00
2022-09-23T03:08:41.548Z,80.84
2022-09-23T03:11:11.266Z,80.92
2022-09-23T03:13:52.136Z,80.67
2022-09-23T03:16:34.572Z,80.83
2022-09-23T03:19:13.101Z,80.89
2022-09-23T03:21:49.081Z,81.17
2022-09-23T03:24:16.253Z,81.27
2022-09-23T03:26:46.466Z,81.46
2022-09-23T03:29:15.051Z,81.41
2022-09-23T03:31:42.632Z,81.44
2022-09-23T03:34:16.342Z,81.02
2022-09-23T03:37:21.025Z,80.75
2022-09-23T03:40:07.671Z,80.58
2022-09-23T03:42:36.214Z,80.73
2022-09-23T03:45:06.190Z,80.96
2022-09-23T03:47:32.690Z,80.61
2022-09-23T03:49:59.035Z,80.00
2022-09-23T03:52:26.081Z,80.19
2022-09-23T03:54:53.305Z,80.24
2022-09-23T03:57:20.876Z,79.95
2022-09-23T03:59:47.890Z,79.93
2022-09-23T04:02:14.277Z,79.85
2022-09-23T04:04:40.617Z,80.20
2022-09-23T04:07:07.014Z,80.27
2022-09-23T04:09:34.312Z,80.30
2022-09-23T04:12:00.844Z,80.49
2022-09-23T04:14:27.199Z,80.39
2022-09-23T04:16:53.613Z,80.25
2022-09-23T04:19:20.136Z,80.56
2022-09-23T04:21:47.213Z,80.58
2022-09-23T04:24:14.553Z,80.49
2022-09-23T04:26:42.030Z,80.60
2022-09-23T04:29:08.732Z,80.32
2022-09-23T04:31:35.124Z,80.91
2022-09-23T04:34:01.614Z,80.88
2022-09-23T04:36:28.222Z,80.83
2022-09-23T04:38:54.554Z,80.84
2022-09-23T04:41:20.875Z,80.74
2022-09-23T04:43:47.327Z,80.70
2022-09-23T04:46:15.477Z,80.79
2022-09-23T04:48:42.217Z,80.83
2022-09-23T04:51:21.259Z,80.82
2022-09-23T04:53:49.599Z,80.91
2022-09-23T04:56:18.400Z,81.22
2022-09-23T04:58:45.305Z,81.26
2022-09-23T05:01:17.853Z,81.22
2022-09-23T05:03:45.731Z,81.42
2022-09-23T05:06:14.116Z,81.47
2022-09-23T05:08:47.283Z,81.27
2022-09-23T05:11:13.635Z,81.42
2022-09-23T05:13:40.036Z,81.34
2022-09-23T05:16:08.568Z,81.21
2022-09-23T05:18:35.809Z,81.39
2022-09-23T05:21:03.480Z,81.59
2022-09-23T05:23:30.489Z,81.47
2022-09-23T05:26:02.653Z,81.46
2022-09-23T05:28:30.165Z,81.22
2022-09-23T05:31:20.330Z,81.11
2022-09-23T05:33:53.075Z,80.99
2022-09-23T05:36:21.398Z,81.20
2022-09-23T05:38:49.129Z,81.15
2022-09-23T05:41:15.522Z,81.48
2022-09-23T05:43:41.900Z,81.27
2022-09-23T05:46:12.155Z,80.97
2022-09-23T05:48:39.572Z,80.96
2022-09-23T05:51:07.242Z,81.12
2022-09-23T05:53:33.612Z,80.60
2022-09-23T05:56:00.180Z,80.40
2022-09-23T05:58:26.618Z,80.39
2022-09-23T06:00:53.028Z,80.38
2022-09-23T06:03:20.564Z,80.01
2022-09-23T06:05:47.558Z,80.21
2022-09-23T06:08:14.299Z,80.22
2022-09-23T06:10:43.042Z,80.06
2022-09-23T06:13:09.913Z,79.71
2022-09-23T06:15:37.589Z,79.73
2022-09-23T06:18:04.965Z,79.55
2022-09-23T06:20:33.131Z,79.35
2022-09-23T06:23:10.114Z,79.20
2022-09-23T06:25:38.075Z,78.84
2022-09-23T06:28:04.538Z,78.34
2022-09-23T06:30:30.883Z,77.76
2022-09-23T06:32:57.888Z,76.91
2022-09-23T06:35:27.750Z,76.67
2022-09-23T06:37:54.941Z,76.01
2022-09-23T06:40:22.989Z,75.35
2022-09-23T06:42:57.782Z,73.67
2022-09-23T06:45:24.154Z,73.34
2022-09-23T06:47:57.449Z,72.65
2022-09-23T06:50:25.739Z,72.62
2022-09-23T06:52:53.575Z,72.40
2022-09-23T06:55:20.085Z,71.90
2022-09-23T06:57:46.395Z,71.55
2022-09-23T07:00:13.358Z,70.76
2022-09-23T07:02:41.059Z,70.31
2022-09-23T07:05:08.261Z,69.98
2022-09-23T07:07:34.827Z,70.14
2022-09-23T07:10:01.177Z,70.10
2022-09-23T07:12:27.511Z,69.42
2022-09-23T07:14:53.943Z,69.29
2022-09-23T07:17:20.260Z,69.57
2022-09-23T07:19:46.607Z,69.60
2022-09-23T07:22:12.919Z,69.47
2022-09-23T07:24:39.282Z,70.00
2022-09-23T07:27:05.702Z,70.05
2022-09-23T07:29:43.692Z,70.38
2022-09-23T07:32:14.261Z,69.50
2022-09-23T07:34:40.969Z,69.15
2022-09-23T07:37:07.306Z,68.34
2022-09-23T07:39:33.710Z,68.34
2022-09-23T07:42:00.080Z,67.93
2022-09-23T07:44:26.398Z,67.55
2022-09-23T07:46:52.787Z,66.58
2022-09-23T07:49:19.172Z,65.85
2022-09-23T07:51:45.509Z,65.32
2022-09-23T07:54:14.605Z,65.27
2022-09-23T07:56:42.337Z,66.08
2022-09-23T07:59:12.542Z,66.09
2022-09-23T08:01:41.447Z,66.22
2022-09-23T08:04:11.707Z,66.92
2022-09-23T08:06:42.920Z,66.48
2022-09-23T08:09:09.799Z,65.54
2022-09-23T08:11:36.651Z,65.38
2022-09-23T08:14:02.963Z,65.17
2022-09-23T08:16:29.347Z,65.28
2022-09-23T08:18:55.740Z,64.63
2022-09-23T08:21:22.929Z,64.02
2022-09-23T08:23:49.424Z,64.13
2022-09-23T08:26:20.744Z,63.49
2022-09-23T08:28:48.260Z,62.55
2022-09-23T08:31:14.652Z,62.60
2022-09-23T08:33:41.404Z,61.93
2022-09-23T08:36:07.951Z,62.35
2022-09-23T08:38:34.251Z,62.46
2022-09-23T08:41:25.215Z,62.52
2022-09-23T08:43:56.340Z,62.69
2022-09-23T08:46:28.011Z,62.73
2022-09-23T08:48:55.641Z,62.04
2022-09-23T08:51:39.001Z,61.76
2022-09-23T08:54:05.563Z,60.60
2022-09-23T08:56:44.483Z,60.21
2022-09-23T08:59:13.530Z,59.70
2022-09-23T09:01:49.130Z,58.79
2022-09-23T09:04:27.065Z,58.81
2022-09-23T09:07:34.815Z,58.59
2022-09-23T09:10:04.765Z,59.17
2022-09-23T09:12:40.187Z,58.08
2022-09-23T09:15:24.787Z,56.73
2022-09-23T09:17:56.954Z,56.11
2022-09-23T09:20:39.429Z,56.61
2022-09-23T09:23:31.477Z,56.88
2022-09-23T09:26:01.477Z,56.72
2022-09-23T09:28:38.705Z,55.83
2022-09-23T09:31:23.884Z,56.16
2022-09-23T09:33:54.698Z,56.30
2022-09-23T09:36:32.352Z,56.70
2022-09-23T09:38:58.966Z,55.18
2022-09-23T09:41:27.914Z,54.79
2022-09-23T09:43:54.502Z,54.34
2022-09-23T09:46:36.312Z,55.02
2022-09-23T09:49:11.306Z,54.55
2022-09-23T09:51:37.610Z,55.09
2022-09-23T09:54:23.650Z,54.89
2022-09-23T09:56:51.066Z,54.81
2022-09-23T09:59:25.317Z,54.71
2022-09-23T10:02:12.779Z,54.51
2022-09-23T10:04:39.193Z,53.82
2022-09-23T10:07:13.618Z,51.64
2022-09-23T10:09:47.755Z,51.35
2022-09-23T10:12:22.657Z,50.58
2022-09-23T10:14:50.118Z,49.39
2022-09-23T10:17:22.578Z,49.84
2022-09-23T10:19:54.308Z,50.53
2022-09-23T10:22:25.095Z,50.08
2022-09-23T10:24:54.362Z,48.89
2022-09-23T10:27:30.062Z,49.25
2022-09-23T10:29:58.740Z,48.94
2022-09-23T10:32:35.440Z,49.01
2022-09-23T10:35:07.763Z,48.38
2022-09-23T10:37:45.005Z,46.48
2022-09-23T10:40:43.090Z,46.28
2022-09-23T10:43:34.414Z,45.83
2022-09-23T10:46:05.182Z,45.45
2022-09-23T10:48:56.072Z,45.74
2022-09-23T10:51:36.763Z,46.57
2022-09-23T10:54:32.014Z,45.96
2022-09-23T10:57:04.420Z,45.34
2022-09-23T10:59:53.548Z,43.59
2022-09-23T11:02:50.526Z,44.26
2022-09-23T11:05:38.064Z,44.37
2022-09-23T11:08:20.023Z,43.13
2022-09-23T11:11:01.587Z,43.67
2022-09-23T11:13:46.056Z,43.39
2022-09-23T11:16:18.458Z,43.89
2022-09-23T11:18:52.622Z,42.89
2022-09-23T11:21:31.444Z,43.77
2022-09-23T11:24:11.409Z,43.15
2022-09-23T11:27:19.087Z,43.51
2022-09-23T11:30:03.493Z,42.92
2022-09-23T11:32:32.676Z,43.56
2022-09-23T11:35:12.779Z,43.90
2022-09-23T11:37:48.022Z,42.04
2022-09-23T11:40:30.828Z,42.83
2022-09-23T11:43:01.782Z,43.18
2022-09-23T11:45:33.728Z,43.56
2022-09-23T11:48:08.838Z,42.56
2022-09-23T11:50:44.675Z,43.61
2022-09-23T11:53:58.401Z,42.66
2022-09-23T11:56:46.754Z,42.49
2022-09-23T11:59:14.717Z,43.34
2022-09-23T12:01:53.038Z,43.47
2022-09-23T12:04:29.056Z,43.38
2022-09-23T12:07:08.030Z,44.30
2022-09-23T12:09:58.066Z,43.78
2022-09-23T12:12:34.493Z,43.24
2022-09-23T12:15:37.794Z,43.24
2022-09-23T12:18:25.606Z,42.81
2022-09-23T12:20:58.784Z,42.81
2022-09-23T12:23:52.328Z,42.52
2022-09-23T12:26:23.477Z,42.34
2022-09-23T12:28:54.372Z,41.37
2022-09-23T12:31:24.884Z,42.18
2022-09-23T12:33:53.737Z,42.06
2022-09-23T12:36:29.403Z,41.82
2022-09-23T12:39:17.679Z,41.78
2022-09-23T12:41:47.654Z,42.73
2022-09-23T12:44:26.157Z,41.95
2022-09-23T12:47:14.986Z,41.93
2022-09-23T12:49:42.657Z,41.36
2022-09-23T12:52:11.667Z,41.68
2022-09-23T12:54:40.123Z,42.13
2022-09-23T12:57:11.196Z,42.23
2022-09-23T13:00:06.783Z,41.64
2022-09-23T13:02:39.937Z,41.42
2022-09-23T13:05:24.863Z,40.38
2022-09-23T13:07:51.297Z,40.71
2022-09-23T13:10:54.119Z,40.56
2022-09-23T13:13:41.634Z,41.13
2022-09-23T13:16:25.281Z,41.55
2022-09-23T13:18:57.066Z,40.60
2022-09-23T13:21:44.955Z,40.64
2022-09-23T13:24:20.540Z,39.95
2022-09-23T13:26:49.847Z,40.38
2022-09-23T13:29:25.445Z,39.14
2022-09-23T13:31:52.344Z,39.99
2022-09-23T13:34:22.899Z,40.28
2022-09-23T13:36:49.203Z,41.41
2022-09-23T13:39:27.019Z,41.24
2022-09-23T13:41:59.610Z,43.29
2022-09-23T13:44:28.005Z,42.33
2022-09-23T13:46:58.624Z,41.33
2022-09-23T13:49:26.727Z,41.68
2022-09-23T13:51:53.338Z,41.65
2022-09-23T13:54:47.107Z,41.78
2022-09-23T13:57:31.334Z,41.46
2022-09-23T14:00:02.865Z,42.18
2022-09-23T14:02:29.165Z,41.76
2022-09-23T14:04:58.570Z,42.25
2022-09-23T14:07:25.636Z,41.52
2022-09-23T14:09:55.114Z,42.22
2022-09-23T14:12:21.661Z,42.75
2022-09-23T14:14:50.690Z,43.23
2022-09-23T14:17:19.859Z,43.55
2022-09-23T14:19:47.080Z,43.62
2022-09-23T14:22:27.877Z,42.84
2022-09-23T14:24:55.474Z,43.28
2022-09-23T14:27:32.279Z,43.78
2022-09-23T14:29:59.264Z,43.55
2022-09-23T14:32:26.710Z,44.38
2022-09-23T14:35:01.914Z,45.35
2022-09-23T14:37:31.207Z,47.23
2022-09-23T14:39:57.986Z,45.24
2022-09-23T14:42:24.332Z,45.48
2022-09-23T14:44:50.643Z,45.57
2022-09-23T14:47:17.114Z,45.85
2022-09-23T14:49:48.685Z,46.00
2022-09-23T14:52:15.020Z,47.79
2022-09-23T14:54:46.138Z,47.40
2022-09-23T14:57:29.848Z,47.58
2022-09-23T15:00:18.794Z,47.97
2022-09-23T15:02:58.583Z,48.41
2022-09-23T15:05:45.611Z,47.91
2022-09-23T15:08:21.731Z,48.48
2022-09-23T15:10:48.701Z,48.69
2022-09-23T15:13:20.925Z,48.88
2022-09-23T15:15:47.530Z,48.47
2022-09-23T15:18:28.881Z,47.35
2022-09-23T15:21:01.376Z,47.08
2022-09-23T15:23:47.089Z,47.21
2022-09-23T15:26:20.286Z,47.25
2022-09-23T15:28:48.105Z,47.11
2022-09-23T15:31:19.310Z,46.61
2022-09-23T15:33:46.549Z,47.03
2022-09-23T15:36:25.245Z,47.18
2022-09-23T15:38:52.207Z,47.96
2022-09-23T15:41:18.718Z,46.76
2022-09-23T15:43:45.178Z,49.56
2022-09-23T15:46:20.449Z,48.76
2022-09-23T15:48:59.206Z,48.90
2022-09-23T15:51:26.931Z,50.10
2022-09-23T15:53:53.851Z,50.48
2022-09-23T15:56:20.609Z,51.14
2022-09-23T15:58:47.134Z,51.01
2022-09-23T16:01:25.386Z,51.75
2022-09-23T16:03:51.709Z,51.74
2022-09-23T16:06:19.237Z,52.53
2022-09-23T16:08:46.018Z,51.19
2022-09-23T16:11:18.888Z,50.77
2022-09-23T16:13:45.704Z,50.64
2022-09-23T16:16:12.029Z,50.42
2022-09-23T16:18:38.382Z,52.18
2022-09-23T16:21:05.188Z,51.81
2022-09-23T16:23:37.005Z,51.53
2022-09-23T16:26:24.391Z,52.52
2022-09-23T16:28:54.327Z,52.46
2022-09-23T16:31:22.379Z,51.92
2022-09-23T16:33:49.078Z,53.13
2022-09-23T16:36:24.673Z,52.72
2022-09-23T16:38:51.024Z,53.53
2022-09-23T16:41:17.354Z,54.09
2022-09-23T16:43:43.657Z,53.84
2022-09-23T16:46:12.402Z,53.85
2022-09-23T16:48:39.769Z,53.65
2022-09-23T16:51:14.447Z,53.92
2022-09-23T16:53:41.237Z,53.96
2022-09-23T16:56:09.353Z,54.11
2022-09-23T16:58:36.891Z,54.10
2022-09-23T17:01:04.051Z,54.97
2022-09-23T17:03:30.456Z,55.30
2022-09-23T17:05:57.084Z,55.40
2022-09-23T17:08:23.400Z,55.55
2022-09-23T17:10:56.854Z,56.40
2022-09-23T17:13:23.140Z,56.85
2022-09-23T17:15:49.461Z,57.40
2022-09-23T17:18:19.399Z,58.38
2022-09-23T17:21:06.173Z,59.62
2022-09-23T17:23:34.243Z,59.71
2022-09-23T17:26:01.960Z,59.47
2022-09-23T17:28:29.008Z,60.15
2022-09-23T17:31:00.070Z,60.08
2022-09-23T17:33:27.870Z,60.69
2022-09-23T17:35:54.431Z,60.64
2022-09-23T17:38:26.686Z,60.73
2022-09-23T17:40:56.848Z,60.59
2022-09-23T17:43:23.188Z,60.78
2022-09-23T17:45:49.525Z,60.67
2022-09-23T17:48:16.041Z,60.78
2022-09-23T17:50:42.526Z,61.30
2022-09-23T17:53:08.842Z,61.33
2022-09-23T17:55:35.135Z,61.59
2022-09-23T17:58:01.424Z,61.73
2022-09-23T18:00:27.758Z,61.92
2022-09-23T18:02:54.086Z,62.36
2022-09-23T18:05:21.775Z,62.67
2022-09-23T18:07:48.076Z,62.58
2022-09-23T18:10:14.374Z,62.91
2022-09-23T18:12:40.679Z,62.72
2022-09-23T18:15:07.273Z,63.01
2022-09-23T18:17:33.575Z,63.52
2022-09-23T18:20:00.171Z,63.67
2022-09-23T18:22:26.486Z,64.08
2022-09-23T18:24:52.795Z,64.23
2022-09-23T18:27:19.094Z,64.13
2022-09-23T18:29:45.379Z,64.07
2022-09-23T18:32:14.241Z,64.25
2022-09-23T18:34:40.837Z,64.69
2022-09-23T18:37:15.343Z,64.68
2022-09-23T18:39:42.482Z,64.97
2022-09-23T18:42:09.059Z,64.91
2022-09-23T18:44:35.366Z,65.07
2022-09-23T18:47:01.667Z,65.27
2022-09-23T18:49:27.948Z,65.35
2022-09-23T18:51:58.050Z,65.45
2022-09-23T18:54:26.988Z,65.72
2022-09-23T18:56:53.609Z,66.06
2022-09-23T18:59:21.890Z,66.50
2022-09-23T19:01:49.473Z,66.53
2022-09-23T19:04:20.389Z,66.23
2022-09-23T19:06:47.535Z,66.86
2022-09-23T19:09:17.962Z,67.32
2022-09-23T19:11:44.508Z,67.00
2022-09-23T19:14:11.777Z,67.62
2022-09-23T19:16:41.066Z,68.23
2022-09-23T19:19:08.107Z,68.23
2022-09-23T19:21:34.819Z,68.87
2022-09-23T19:24:04.969Z,68.99
2022-09-23T19:26:34.730Z,69.31
2022-09-23T19:29:01.814Z,69.38
2022-09-23T19:31:34.469Z,69.33
2022-09-23T19:34:03.849Z,69.49
2022-09-23T19:36:33.050Z,69.67
2022-09-23T19:39:06.607Z,69.60
2022-09-23T19:41:33.208Z,70.25
2022-09-23T19:44:00.703Z,70.46
2022-09-23T19:46:27.112Z,70.70
2022-09-23T19:48:53.433Z,70.68
2022-09-23T19:51:19.720Z,70.65
2022-09-23T19:53:46.088Z,70.67
2022-09-23T19:56:13.548Z,70.46
2022-09-23T19:58:39.872Z,70.48
2022-09-23T20:01:07.068Z,70.59
2022-09-23T20:03:33.508Z,71.07
2022-09-23T20:05:59.833Z,72.04
2022-09-23T20:08:26.282Z,72.76
2022-09-23T20:10:53.012Z,73.48
2022-09-23T20:13:19.775Z,74.50
2022-09-23T20:15:46.695Z,75.68
2022-09-23T20:18:13.154Z,77.19
2022-09-23T20:20:39.800Z,77.80
2022-09-23T20:23:06.228Z,78.35
2022-09-23T20:25:32.778Z,79.15
2022-09-23T20:27:59.081Z,80.23
2022-09-23T20:30:25.411Z,80.51
2022-09-23T20:32:51.713Z,81.29
2022-09-23T20:35:18.080Z,81.50
2022-09-23T20:37:44.401Z,81.86
2022-09-23T20:40:10.806Z,82.68
2022-09-23T20:42:37.205Z,82.65
2022-09-23T20:45:03.766Z,82.81
2022-09-23T20:47:30.098Z,82.79
2022-09-23T20:49:56.429Z,82.58
2022-09-23T20:52:22.777Z,82.15
2022-09-23T20:54:49.100Z,82.15
2022-09-23T20:57:15.477Z,81.97
2022-09-23T20:59:41.801Z,81.76
2022-09-23T21:02:09.837Z,82.23
2022-09-23T21:04:36.320Z,82.87
2022-09-23T21:07:02.625Z,84.18
2022-09-23T21:09:29.461Z,84.59
2022-09-23T21:11:55.919Z,84.03
2022-09-23T21:14:22.970Z,83.78
2022-09-23T21:16:49.976Z,84.91
2022-09-23T21:19:17.396Z,84.85
2022-09-23T21:21:43.765Z,85.09
2022-09-23T21:24:45.331Z,84.71
2022-09-23T21:26:56.754Z,84.51
2022-09-23T21:29:23.096Z,84.89
2022-09-23T21:31:49.624Z,85.28
2022-09-23T21:34:16.166Z,84.56
2022-09-23T21:36:44.309Z,84.50
2022-09-23T21:39:11.745Z,84.31
2022-09-23T21:41:39.001Z,84.03
2022-09-23T21:44:06.142Z,83.94
2022-09-23T21:46:32.820Z,83.75
2022-09-23T21:48:59.839Z,83.26
2022-09-23T21:51:31.744Z,82.78
2022-09-23T21:53:58.462Z,82.94
2022-09-23T21:56:30.537Z,82.67
2022-09-23T21:58:58.216Z,82.70
2022-09-23T22:01:27.146Z,84.09
2022-09-23T22:03:59.362Z,84.55
2022-09-23T22:06:27.406Z,84.06
2022-09-23T22:08:56.662Z,83.71
2022-09-23T22:11:23.950Z,83.96
2022-09-23T22:13:50.254Z,83.85
2022-09-23T22:16:16.669Z,83.76
2022-09-23T22:18:43.131Z,83.63
2022-09-23T22:21:09.479Z,83.71
2022-09-23T22:23:35.789Z,83.89
2022-09-23T22:26:03.416Z,83.49
2022-09-23T22:28:32.715Z,83.33
2022-09-23T22:30:59.062Z,83.18
2022-09-23T22:33:25.435Z,83.25
2022-09-23T22:35:51.794Z,83.37
2022-09-23T22:38:18.313Z,83.75
2022-09-23T22:40:44.735Z,83.93
2022-09-23T22:43:11.097Z,84.12
2022-09-23T22:45:37.463Z,83.88
2022-09-23T22:48:05.283Z,84.05
2022-09-23T22:50:31.601Z,84.01
2022-09-23T22:52:57.979Z,84.50
2022-09-23T22:55:24.320Z,84.18
2022-09-23T22:57:50.957Z,84.28
2022-09-23T23:00:17.288Z,84.31
2022-09-23T23:02:43.733Z,82.95
2022-09-23T23:05:10.541Z,82.62
2022-09-23T23:07:36.874Z,83.29
2022-09-23T23:10:03.545Z,83.98
2022-09-23T23:12:29.933Z,83.53
2022-09-23T23:14:56.259Z,83.76
2022-09-23T23:17:22.578Z,83.58
2022-09-23T23:19:48.944Z,83.71
2022-09-23T23:22:15.266Z,83.84
2022-09-23T23:24:41.648Z,84.01
2022-09-23T23:27:08.024Z,83.57
2022-09-23T23:29:34.362Z,83.74
2022-09-23T23:32:00.824Z,83.93
2022-09-23T23:34:27.172Z,83.95
2022-09-23T23:36:53.976Z,83.93
2022-09-23T23:39:22.499Z,84.21
2022-09-23T23:41:51.988Z,84.43
2022-09-23T23:44:18.373Z,84.61
2022-09-23T23:46:44.700Z,84.66
2022-09-23T23:49:11.145Z,84.19
2022-09-23T23:51:37.489Z,84.23
2022-09-23T23:54:04.086Z,84.82
2022-09-23T23:56:30.480Z,85.29
2022-09-23T23:58:58.881Z,85.36
